createdAt,value
2023-01-22T00:01:13.205Z,91.16
2023-01-22T00:03:40.868Z,91.57
2023-01-22T00:06:08.686Z,91.51
2023-01-22T00:08:35.394Z,91.52
2023-01-22T00:11:02.423Z,91.79
2023-01-22T00:13:29.377Z,91.89
2023-01-22T00:15:58.665Z,92.02
2023-01-22T00:18:25.490Z,92.10
2023-01-22T00:20:54.206Z,92.07
2023-01-22T00:23:20.964Z,92.12
2023-01-22T00:25:47.568Z,91.80
2023-01-22T00:28:14.295Z,91.83
2023-01-22T00:30:40.834Z,91.99
2023-01-22T00:33:08.969Z,91.78
2023-01-22T00:35:35.521Z,92.10
2023-01-22T00:38:02.239Z,91.79
2023-01-22T00:40:29.669Z,91.86
2023-01-22T00:42:56.165Z,91.54
2023-01-22T00:45:22.703Z,91.80
2023-01-22T00:47:49.271Z,91.80
2023-01-22T00:50:16.423Z,91.52
2023-01-22T00:52:43.225Z,91.25
2023-01-22T00:55:09.840Z,91.70
2023-01-22T00:57:36.323Z,91.03
2023-01-22T01:00:03.787Z,90.96
2023-01-22T01:02:30.388Z,90.83
2023-01-22T01:04:56.939Z,90.87
2023-01-22T01:07:24.672Z,90.96
2023-01-22T01:09:51.204Z,90.86
2023-01-22T01:12:18.696Z,90.45
2023-01-22T01:14:45.427Z,90.52
2023-01-22T01:17:11.901Z,90.50
2023-01-22T01:19:38.497Z,90.83
2023-01-22T01:22:06.780Z,90.75
2023-01-22T01:24:33.279Z,91.31
2023-01-22T01:26:59.809Z,91.13
2023-01-22T01:29:26.392Z,91.21
2023-01-22T01:31:54.707Z,91.09
2023-01-22T01:34:21.376Z,90.99
2023-01-22T01:36:49.600Z,90.83
2023-01-22T01:39:17.326Z,90.50
2023-01-22T01:41:44.173Z,90.68
2023-01-22T01:44:20.189Z,90.54
2023-01-22T01:46:51.846Z,90.68
2023-01-22T01:49:26.199Z,90.48
2023-01-22T01:51:56.981Z,90.35
2023-01-22T01:54:24.084Z,90.25
2023-01-22T01:56:54.511Z,90.18
2023-01-22T01:59:22.610Z,90.37
2023-01-22T02:01:55.146Z,90.36
2023-01-22T02:04:23.740Z,90.55
2023-01-22T02:06:50.427Z,90.51
2023-01-22T02:09:16.995Z,90.45
2023-01-22T02:11:43.607Z,90.61
2023-01-22T02:14:18.055Z,90.45
2023-01-22T02:16:44.708Z,90.77
2023-01-22T02:19:11.620Z,90.49
2023-01-22T02:21:39.530Z,90.74
2023-01-22T02:24:10.264Z,90.56
2023-01-22T02:26:38.682Z,90.34
2023-01-22T02:29:08.994Z,90.74
2023-01-22T02:31:37.549Z,90.57
2023-01-22T02:34:05.785Z,90.43
2023-01-22T02:36:34.375Z,90.42
2023-01-22T02:39:00.871Z,90.17
2023-01-22T02:41:28.646Z,90.42
2023-01-22T02:43:55.256Z,90.35
2023-01-22T02:46:21.844Z,90.38
2023-01-22T02:48:48.387Z,90.29
2023-01-22T02:51:16.016Z,90.49
2023-01-22T02:53:42.604Z,90.44
2023-01-22T02:56:10.877Z,90.44
2023-01-22T02:58:37.596Z,90.78
2023-01-22T03:01:19.757Z,90.59
2023-01-22T03:03:48.675Z,90.64
2023-01-22T03:06:15.933Z,90.31
2023-01-22T03:08:43.700Z,90.81
2023-01-22T03:11:11.335Z,90.73
2023-01-22T03:13:56.499Z,90.87
2023-01-22T03:16:42.299Z,90.91
2023-01-22T03:19:27.357Z,90.56
2023-01-22T03:21:53.875Z,90.60
2023-01-22T03:24:20.533Z,90.50
2023-01-22T03:26:47.080Z,91.02
2023-01-22T03:29:13.751Z,90.84
2023-01-22T03:31:40.384Z,91.00
2023-01-22T03:34:07.084Z,90.90
2023-01-22T03:36:33.588Z,90.78
2023-01-22T03:39:01.550Z,91.01
2023-01-22T03:41:28.086Z,90.90
2023-01-22T03:43:54.697Z,90.88
2023-01-22T03:46:21.303Z,90.76
2023-01-22T03:48:51.233Z,91.10
2023-01-22T03:51:18.514Z,90.70
2023-01-22T03:53:47.317Z,90.90
2023-01-22T03:56:18.510Z,90.94
2023-01-22T03:58:45.678Z,90.99
2023-01-22T04:01:14.650Z,91.01
2023-01-22T04:03:41.697Z,90.56
2023-01-22T04:06:10.587Z,91.02
2023-01-22T04:08:38.538Z,90.45
2023-01-22T04:11:05.351Z,90.62
2023-01-22T04:13:33.478Z,90.73
2023-01-22T04:16:00.018Z,90.53
2023-01-22T04:18:26.690Z,90.98
2023-01-22T04:20:53.385Z,90.69
2023-01-22T04:23:22.111Z,90.65
2023-01-22T04:25:48.851Z,90.83
2023-01-22T04:28:16.669Z,91.02
2023-01-22T04:30:45.008Z,90.95
2023-01-22T04:33:12.287Z,91.27
2023-01-22T04:35:40.175Z,90.96
2023-01-22T04:38:08.116Z,91.38
2023-01-22T04:40:34.573Z,91.21
2023-01-22T04:43:02.472Z,91.36
2023-01-22T04:45:30.183Z,91.42
2023-01-22T04:47:59.183Z,91.05
2023-01-22T04:50:30.284Z,91.48
2023-01-22T04:52:57.289Z,91.45
2023-01-22T04:55:25.919Z,91.67
2023-01-22T04:57:58.115Z,91.72
2023-01-22T05:00:25.639Z,92.08
2023-01-22T05:02:56.656Z,91.84
2023-01-22T05:05:23.745Z,91.71
2023-01-22T05:07:50.289Z,91.35
2023-01-22T05:10:17.320Z,91.90
2023-01-22T05:12:45.027Z,91.65
2023-01-22T05:15:23.224Z,91.72
2023-01-22T05:17:50.809Z,91.60
2023-01-22T05:20:18.078Z,91.36
2023-01-22T05:22:44.912Z,91.96
2023-01-22T05:25:11.772Z,91.81
2023-01-22T05:27:39.045Z,91.64
2023-01-22T05:30:06.666Z,91.57
2023-01-22T05:32:34.117Z,91.39
2023-01-22T05:35:00.588Z,91.20
2023-01-22T05:37:27.090Z,91.41
2023-01-22T05:39:53.618Z,91.42
2023-01-22T05:42:20.999Z,91.14
2023-01-22T05:44:48.704Z,91.26
2023-01-22T05:47:15.827Z,91.13
2023-01-22T05:49:43.700Z,91.17
2023-01-22T05:52:12.762Z,90.75
2023-01-22T05:54:40.196Z,91.20
2023-01-22T05:57:08.278Z,91.04
2023-01-22T05:59:34.811Z,90.91
2023-01-22T06:02:01.658Z,90.58
2023-01-22T06:04:28.414Z,90.92
2023-01-22T06:06:54.956Z,91.17
2023-01-22T06:09:21.453Z,90.71
2023-01-22T06:11:48.109Z,90.73
2023-01-22T06:14:15.751Z,90.73
2023-01-22T06:16:42.337Z,90.61
2023-01-22T06:19:09.056Z,90.33
2023-01-22T06:21:35.529Z,90.43
2023-01-22T06:24:03.005Z,90.64
2023-01-22T06:26:29.492Z,90.29
2023-01-22T06:28:56.993Z,90.11
2023-01-22T06:31:23.735Z,90.15
2023-01-22T06:33:50.278Z,89.99
2023-01-22T06:36:16.809Z,90.08
2023-01-22T06:38:44.253Z,89.88
2023-01-22T06:41:11.058Z,89.73
2023-01-22T06:43:37.821Z,89.52
2023-01-22T06:46:04.822Z,89.68
2023-01-22T06:48:31.695Z,89.75
2023-01-22T06:50:59.675Z,89.55
2023-01-22T06:53:26.637Z,89.43
2023-01-22T06:55:53.120Z,89.33
2023-01-22T06:58:19.728Z,89.35
2023-01-22T07:00:46.531Z,89.27
2023-01-22T07:03:15.222Z,89.04
2023-01-22T07:05:42.083Z,89.11
2023-01-22T07:08:09.845Z,88.96
2023-01-22T07:10:36.353Z,88.90
2023-01-22T07:13:04.280Z,89.02
2023-01-22T07:15:30.965Z,88.93
2023-01-22T07:17:57.429Z,88.71
2023-01-22T07:20:24.329Z,89.20
2023-01-22T07:22:51.609Z,88.53
2023-01-22T07:25:19.574Z,88.54
2023-01-22T07:27:46.204Z,88.30
2023-01-22T07:30:13.275Z,88.36
2023-01-22T07:32:39.777Z,88.50
2023-01-22T07:35:06.521Z,88.87
2023-01-22T07:37:32.959Z,88.66
2023-01-22T07:40:00.379Z,88.31
2023-01-22T07:42:26.979Z,87.94
2023-01-22T07:44:54.411Z,88.40
2023-01-22T07:47:20.908Z,88.12
2023-01-22T07:49:48.313Z,88.25
2023-01-22T07:52:14.832Z,88.29
2023-01-22T07:54:41.339Z,88.40
2023-01-22T07:57:08.047Z,88.13
2023-01-22T07:59:36.181Z,87.77
2023-01-22T08:02:03.684Z,88.09
2023-01-22T08:04:30.424Z,88.22
2023-01-22T08:06:56.937Z,87.87
2023-01-22T08:09:25.673Z,87.99
2023-01-22T08:11:53.331Z,87.72
2023-01-22T08:14:20.303Z,87.76
2023-01-22T08:16:47.185Z,88.07
2023-01-22T08:19:14.384Z,87.56
2023-01-22T08:21:41.351Z,87.51
2023-01-22T08:24:10.258Z,87.71
2023-01-22T08:26:38.265Z,87.83
2023-01-22T08:29:07.797Z,87.41
2023-01-22T08:31:34.785Z,87.80
2023-01-22T08:34:01.995Z,87.46
2023-01-22T08:36:29.949Z,87.70
2023-01-22T08:38:56.735Z,87.34
2023-01-22T08:41:24.321Z,87.42
2023-01-22T08:43:52.424Z,87.45
2023-01-22T08:46:19.636Z,86.94
2023-01-22T08:48:46.259Z,87.35
2023-01-22T08:51:13.114Z,86.98
2023-01-22T08:53:39.710Z,87.03
2023-01-22T08:56:06.779Z,86.89
2023-01-22T08:58:33.390Z,87.27
2023-01-22T09:01:00.327Z,87.19
2023-01-22T09:03:26.993Z,87.41
2023-01-22T09:05:53.872Z,87.40
2023-01-22T09:08:22.517Z,87.30
2023-01-22T09:10:49.135Z,87.52
2023-01-22T09:13:15.717Z,87.36
2023-01-22T09:15:42.243Z,87.04
2023-01-22T09:18:08.735Z,87.49
2023-01-22T09:20:35.254Z,87.28
2023-01-22T09:23:01.935Z,86.75
2023-01-22T09:25:30.394Z,87.28
2023-01-22T09:27:59.097Z,87.16
2023-01-22T09:30:26.583Z,87.56
2023-01-22T09:32:53.314Z,87.05
2023-01-22T09:35:19.851Z,87.16
2023-01-22T09:37:47.431Z,87.43
2023-01-22T09:40:23.152Z,86.75
2023-01-22T09:42:51.002Z,86.88
2023-01-22T09:45:23.974Z,87.39
2023-01-22T09:47:56.955Z,86.36
2023-01-22T09:50:28.501Z,86.78
2023-01-22T09:53:00.447Z,86.61
2023-01-22T09:55:30.848Z,86.74
2023-01-22T09:58:02.234Z,87.03
2023-01-22T10:00:40.867Z,86.90
2023-01-22T10:03:16.969Z,86.90
2023-01-22T10:05:49.300Z,86.73
2023-01-22T10:08:23.506Z,86.34
2023-01-22T10:10:52.132Z,86.21
2023-01-22T10:13:22.063Z,86.64
2023-01-22T10:15:50.723Z,86.69
2023-01-22T10:18:29.606Z,86.72
2023-01-22T10:20:58.054Z,85.98
2023-01-22T10:23:30.820Z,86.22
2023-01-22T10:26:26.283Z,86.69
2023-01-22T10:28:59.261Z,86.18
2023-01-22T10:31:29.833Z,86.27
2023-01-22T10:34:00.290Z,86.17
2023-01-22T10:36:31.251Z,86.51
2023-01-22T10:39:15.300Z,86.52
2023-01-22T10:41:44.381Z,86.74
2023-01-22T10:44:24.195Z,86.71
2023-01-22T10:46:55.547Z,86.78
2023-01-22T10:49:25.375Z,86.38
2023-01-22T10:51:59.053Z,86.45
2023-01-22T10:54:33.095Z,86.33
2023-01-22T10:57:14.950Z,86.38
2023-01-22T10:59:53.801Z,86.57
2023-01-22T11:02:27.379Z,86.49
2023-01-22T11:04:54.025Z,86.31
2023-01-22T11:07:25.536Z,86.38
2023-01-22T11:10:05.026Z,86.73
2023-01-22T11:12:36.939Z,86.62
2023-01-22T11:15:21.438Z,87.07
2023-01-22T11:17:52.753Z,86.78
2023-01-22T11:20:33.434Z,86.64
2023-01-22T11:23:11.492Z,86.68
2023-01-22T11:25:43.882Z,86.52
2023-01-22T11:28:18.273Z,86.21
2023-01-22T11:30:58.131Z,86.62
2023-01-22T11:33:32.343Z,86.27
2023-01-22T11:36:08.783Z,86.77
2023-01-22T11:38:51.680Z,86.41
2023-01-22T11:41:27.333Z,86.56
2023-01-22T11:44:03.215Z,86.16
2023-01-22T11:46:45.189Z,86.32
2023-01-22T11:49:22.344Z,86.17
2023-01-22T11:51:49.834Z,86.58
2023-01-22T11:54:20.338Z,85.99
2023-01-22T11:57:00.541Z,86.21
2023-01-22T11:59:45.588Z,86.17
2023-01-22T12:02:30.570Z,86.61
2023-01-22T12:05:30.959Z,86.31
2023-01-22T12:08:08.969Z,85.96
2023-01-22T12:10:46.631Z,85.98
2023-01-22T12:13:49.456Z,86.21
2023-01-22T12:16:27.382Z,85.98
2023-01-22T12:19:11.649Z,85.98
2023-01-22T12:21:53.086Z,85.82
2023-01-22T12:24:23.351Z,85.75
2023-01-22T12:27:06.506Z,86.33
2023-01-22T12:29:40.765Z,86.00
2023-01-22T12:32:10.924Z,86.34
2023-01-22T12:34:49.487Z,85.88
2023-01-22T12:37:21.848Z,86.11
2023-01-22T12:40:17.784Z,86.39
2023-01-22T12:42:56.417Z,86.11
2023-01-22T12:45:31.813Z,85.96
2023-01-22T12:48:25.213Z,86.39
2023-01-22T12:50:56.026Z,85.91
2023-01-22T12:53:24.174Z,85.63
2023-01-22T12:56:00.923Z,86.02
2023-01-22T12:58:30.446Z,86.30
2023-01-22T13:01:22.149Z,85.93
2023-01-22T13:04:02.102Z,86.10
2023-01-22T13:06:34.541Z,86.20
2023-01-22T13:09:02.266Z,86.01
2023-01-22T13:11:33.412Z,85.83
2023-01-22T13:14:15.606Z,85.95
2023-01-22T13:16:51.846Z,86.01
2023-01-22T13:19:24.320Z,86.23
2023-01-22T13:21:51.943Z,85.72
2023-01-22T13:24:20.320Z,85.30
2023-01-22T13:26:57.144Z,85.92
2023-01-22T13:29:28.731Z,86.23
2023-01-22T13:31:57.767Z,85.81
2023-01-22T13:34:24.995Z,86.26
2023-01-22T13:36:52.396Z,86.28
2023-01-22T13:39:22.022Z,86.05
2023-01-22T13:41:51.460Z,85.95
2023-01-22T13:44:21.581Z,85.87
2023-01-22T13:46:49.508Z,86.29
2023-01-22T13:49:23.251Z,85.88
2023-01-22T13:51:50.822Z,85.91
2023-01-22T13:54:20.519Z,86.35
2023-01-22T13:56:48.128Z,86.52
2023-01-22T13:59:24.199Z,86.35
2023-01-22T14:01:51.713Z,86.93
2023-01-22T14:04:35.413Z,86.67
2023-01-22T14:07:01.997Z,86.48
2023-01-22T14:09:32.668Z,86.48
2023-01-22T14:12:00.865Z,86.53
2023-01-22T14:14:37.952Z,86.44
2023-01-22T14:17:04.441Z,86.68
2023-01-22T14:19:31.054Z,86.73
2023-01-22T14:22:03.283Z,86.92
2023-01-22T14:24:30.522Z,86.62
2023-01-22T14:26:58.832Z,87.10
2023-01-22T14:29:25.366Z,86.97
2023-01-22T14:31:51.998Z,87.19
2023-01-22T14:34:18.680Z,86.93
2023-01-22T14:36:47.400Z,87.04
2023-01-22T14:39:16.151Z,87.17
2023-01-22T14:41:42.732Z,87.45
2023-01-22T14:44:09.495Z,86.99
2023-01-22T14:46:38.286Z,87.77
2023-01-22T14:49:05.438Z,87.76
2023-01-22T14:51:33.176Z,87.69
2023-01-22T14:54:00.735Z,87.72
2023-01-22T14:56:27.345Z,87.36
2023-01-22T14:58:54.886Z,87.45
2023-01-22T15:01:23.368Z,87.63
2023-01-22T15:03:50.169Z,87.81
2023-01-22T15:06:16.823Z,87.95
2023-01-22T15:08:43.317Z,87.67
2023-01-22T15:11:09.891Z,88.08
2023-01-22T15:13:36.497Z,87.97
2023-01-22T15:16:06.632Z,87.58
2023-01-22T15:18:34.528Z,87.90
2023-01-22T15:21:03.493Z,87.93
2023-01-22T15:23:31.675Z,88.23
2023-01-22T15:25:59.892Z,88.09
2023-01-22T15:28:27.110Z,87.90
2023-01-22T15:30:56.619Z,88.00
2023-01-22T15:33:24.380Z,88.41
2023-01-22T15:35:51.691Z,88.02
2023-01-22T15:38:18.281Z,88.29
2023-01-22T15:40:45.873Z,88.61
2023-01-22T15:43:13.494Z,88.57
2023-01-22T15:45:41.176Z,88.00
2023-01-22T15:48:08.223Z,88.60
2023-01-22T15:50:35.970Z,88.44
2023-01-22T15:53:02.516Z,88.37
2023-01-22T15:55:29.016Z,88.38
2023-01-22T15:57:55.632Z,88.39
2023-01-22T16:00:22.555Z,88.19
2023-01-22T16:02:49.210Z,88.41
2023-01-22T16:05:16.811Z,88.71
2023-01-22T16:07:43.436Z,88.58
2023-01-22T16:10:49.911Z,88.27
2023-01-22T16:13:16.574Z,88.43
2023-01-22T16:15:43.082Z,88.64
2023-01-22T16:18:09.603Z,88.96
2023-01-22T16:20:36.122Z,89.02
2023-01-22T16:23:02.617Z,89.26
2023-01-22T16:25:29.231Z,89.03
2023-01-22T16:27:55.752Z,89.40
2023-01-22T16:30:22.444Z,88.98
2023-01-22T16:32:51.119Z,89.32
2023-01-22T16:35:18.563Z,89.05
2023-01-22T16:37:46.060Z,89.00
2023-01-22T16:40:13.557Z,88.86
2023-01-22T16:42:40.227Z,89.39
2023-01-22T16:45:07.245Z,89.29
2023-01-22T16:47:33.774Z,89.45
2023-01-22T16:50:00.438Z,89.20
2023-01-22T16:52:26.976Z,89.35
2023-01-22T16:54:53.624Z,89.51
2023-01-22T16:57:20.277Z,89.34
2023-01-22T16:59:46.911Z,89.19
2023-01-22T17:02:17.070Z,89.42
2023-01-22T17:04:44.774Z,89.51
2023-01-22T17:07:27.361Z,89.62
2023-01-22T17:09:58.458Z,89.59
2023-01-22T17:12:25.069Z,89.46
2023-01-22T17:14:52.702Z,89.36
2023-01-22T17:17:19.453Z,89.71
2023-01-22T17:19:47.070Z,89.49
2023-01-22T17:22:13.620Z,89.49
2023-01-22T17:24:41.592Z,89.61
2023-01-22T17:27:13.067Z,89.71
2023-01-22T17:29:39.678Z,89.59
2023-01-22T17:32:07.607Z,89.59
2023-01-22T17:34:35.614Z,89.53
2023-01-22T17:37:05.200Z,89.65
2023-01-22T17:39:31.760Z,89.64
2023-01-22T17:41:58.245Z,89.54
2023-01-22T17:44:26.503Z,90.03
2023-01-22T17:46:55.468Z,90.10
2023-01-22T17:49:22.059Z,90.07
2023-01-22T17:51:48.577Z,89.79
2023-01-22T17:54:15.269Z,89.72
2023-01-22T17:56:45.497Z,89.65
2023-01-22T17:59:12.582Z,90.04
2023-01-22T18:01:40.594Z,90.18
2023-01-22T18:04:09.960Z,90.02
2023-01-22T18:06:38.711Z,90.00
2023-01-22T18:09:06.207Z,90.07
2023-01-22T18:11:35.029Z,90.02
2023-01-22T18:14:05.448Z,89.71
2023-01-22T18:16:34.309Z,90.09
2023-01-22T18:19:03.490Z,90.05
2023-01-22T18:21:31.066Z,90.42
2023-01-22T18:24:01.409Z,89.83
2023-01-22T18:26:28.766Z,89.94
2023-01-22T18:28:57.997Z,89.94
2023-01-22T18:31:25.841Z,90.28
2023-01-22T18:33:54.585Z,90.16
2023-01-22T18:36:24.940Z,90.46
2023-01-22T18:38:52.223Z,90.26
2023-01-22T18:41:23.830Z,90.29
2023-01-22T18:43:53.675Z,90.17
2023-01-22T18:46:20.815Z,90.05
2023-01-22T18:48:53.108Z,90.32
2023-01-22T18:51:19.813Z,90.09
2023-01-22T18:53:46.550Z,90.07
2023-01-22T18:56:13.250Z,90.68
2023-01-22T18:58:42.433Z,90.61
2023-01-22T19:01:10.347Z,90.10
2023-01-22T19:03:37.004Z,90.27
2023-01-22T19:06:08.732Z,90.58
2023-01-22T19:08:35.375Z,90.70
2023-01-22T19:11:06.343Z,90.06
2023-01-22T19:13:35.579Z,90.32
2023-01-22T19:16:05.325Z,90.67
2023-01-22T19:18:31.947Z,90.86
2023-01-22T19:21:05.522Z,90.95
2023-01-22T19:23:32.982Z,90.76
2023-01-22T19:26:14.813Z,90.69
2023-01-22T19:28:41.528Z,90.74
2023-01-22T19:31:17.778Z,90.71
2023-01-22T19:33:45.267Z,90.97
2023-01-22T19:36:11.945Z,90.91
2023-01-22T19:38:39.332Z,90.65
2023-01-22T19:41:06.892Z,90.76
2023-01-22T19:43:33.901Z,91.05
2023-01-22T19:46:04.136Z,90.78
2023-01-22T19:48:31.385Z,90.75
2023-01-22T19:50:59.526Z,90.85
2023-01-22T19:53:26.267Z,91.03
2023-01-22T19:55:53.066Z,91.17
2023-01-22T19:58:20.666Z,91.25
2023-01-22T20:00:47.608Z,91.09
2023-01-22T20:03:14.264Z,91.00
2023-01-22T20:05:42.523Z,91.10
2023-01-22T20:08:11.088Z,91.02
2023-01-22T20:10:38.286Z,91.10
2023-01-22T20:13:05.808Z,90.82
2023-01-22T20:15:38.600Z,91.07
2023-01-22T20:18:06.202Z,91.11
2023-01-22T20:20:33.293Z,91.25
2023-01-22T20:22:59.900Z,90.94
2023-01-22T20:25:26.522Z,91.14
2023-01-22T20:27:53.135Z,91.23
2023-01-22T20:30:20.339Z,91.28
2023-01-22T20:32:46.920Z,91.34
2023-01-22T20:35:16.864Z,91.06
2023-01-22T20:37:43.573Z,91.47
2023-01-22T20:40:11.966Z,91.20
2023-01-22T20:42:39.511Z,91.21
2023-01-22T20:45:06.771Z,91.30
2023-01-22T20:47:34.500Z,91.36
2023-01-22T20:50:05.673Z,91.50
2023-01-22T20:52:32.887Z,91.26
2023-01-22T20:55:02.498Z,91.46
2023-01-22T20:57:30.743Z,91.56
2023-01-22T20:59:57.329Z,91.67
2023-01-22T21:02:24.086Z,91.43
2023-01-22T21:04:52.957Z,91.82
2023-01-22T21:07:20.171Z,91.20
2023-01-22T21:09:46.777Z,91.79
2023-01-22T21:12:13.999Z,91.70
2023-01-22T21:14:40.786Z,91.62
2023-01-22T21:17:07.645Z,91.77
2023-01-22T21:19:34.593Z,91.80
2023-01-22T21:22:02.280Z,91.51
2023-01-22T21:24:28.891Z,91.66
2023-01-22T21:26:55.460Z,91.85
2023-01-22T21:29:23.608Z,91.42
2023-01-22T21:31:51.955Z,91.33
2023-01-22T21:34:20.870Z,91.43
2023-01-22T21:36:49.019Z,91.78
2023-01-22T21:39:18.986Z,91.71
2023-01-22T21:41:46.353Z,91.71
2023-01-22T21:44:33.976Z,91.80
2023-01-22T21:47:01.394Z,91.62
2023-01-22T21:49:28.420Z,91.87
2023-01-22T21:52:01.091Z,91.97
2023-01-22T21:54:33.597Z,92.06
2023-01-22T21:57:00.462Z,91.43
2023-01-22T21:59:27.037Z,91.80
2023-01-22T22:01:54.680Z,91.64
2023-01-22T22:04:23.258Z,91.86
2023-01-22T22:06:49.835Z,91.93
2023-01-22T22:09:19.782Z,91.92
2023-01-22T22:11:47.936Z,91.44
2023-01-22T22:14:17.896Z,91.67
2023-01-22T22:16:45.070Z,91.53
2023-01-22T22:19:11.853Z,92.03
2023-01-22T22:21:38.716Z,91.83
2023-01-22T22:24:06.314Z,91.93
2023-01-22T22:26:34.779Z,92.03
2023-01-22T22:29:01.803Z,91.94
2023-01-22T22:31:28.533Z,91.93
2023-01-22T22:33:56.827Z,92.11
2023-01-22T22:36:26.082Z,91.95
2023-01-22T22:38:54.158Z,91.82
2023-01-22T22:41:23.826Z,91.84
2023-01-22T22:43:52.810Z,91.94
2023-01-22T22:46:23.320Z,92.20
2023-01-22T22:48:51.537Z,91.83
2023-01-22T22:51:21.907Z,92.41
2023-01-22T22:53:52.255Z,91.99
2023-01-22T22:56:19.140Z,91.94
2023-01-22T22:58:45.791Z,92.20
2023-01-22T23:01:16.395Z,91.86
2023-01-22T23:03:43.154Z,92.20
2023-01-22T23:06:13.495Z,91.82
2023-01-22T23:08:42.430Z,91.72
2023-01-22T23:11:12.453Z,92.45
2023-01-22T23:13:39.208Z,92.27
2023-01-22T23:16:10.208Z,92.28
2023-01-22T23:18:37.176Z,92.07
2023-01-22T23:21:06.957Z,92.27
2023-01-22T23:23:35.631Z,92.59
2023-01-22T23:26:05.625Z,92.47
2023-01-22T23:28:33.321Z,92.38
2023-01-22T23:31:05.938Z,92.18
2023-01-22T23:33:33.194Z,92.45
2023-01-22T23:36:02.223Z,92.44
2023-01-22T23:38:28.733Z,92.32
2023-01-22T23:40:58.362Z,92.26
2023-01-22T23:43:25.078Z,92.00
2023-01-22T23:45:52.641Z,92.43
2023-01-22T23:48:20.121Z,92.33
2023-01-22T23:50:50.173Z,92.36
2023-01-22T23:53:17.698Z,92.32
2023-01-22T23:55:44.235Z,92.11
2023-01-22T23:58:10.719Z,92.54
